Time;durP1;ratioP1;P1;durP2;ratioP2;P2;SDS_P1;SDS_P2;PMS_P1;PMS_P2;Temp;Humidity;BMP_temperature;BMP_pressure;BME280_temperature;BME280_humidity;BME280_pressure;Samples;Min_cycle;Max_cycle;Signal;HPM_P1;HPM_P2
2023/05/04 04:04:25;;;;;;;4.63;2.25;;;8.30;99.90;;;;;;5888297;23;20239;-72
2023/05/04 04:06:50;;;;;;;3.17;2.73;;;8.20;99.90;;;;;;4939078;29;20209;-72
2023/05/04 04:09:16;;;;;;;4.40;2.20;;;8.30;99.90;;;;;;4956123;29;20172;-73
2023/05/04 04:11:41;;;;;;;4.03;3.73;;;8.30;99.90;;;;;;4956223;29;20654;-73
2023/05/04 04:14:07;;;;;;;5.70;3.73;;;8.30;99.90;;;;;;4955766;28;20197;-72
2023/05/04 04:16:33;;;;;;;2.90;2.70;;;8.30;99.90;;;;;;4938948;29;20721;-72
2023/05/04 04:19:00;;;;;;;3.37;3.10;;;8.30;99.90;;;;;;4956332;29;20175;-72
2023/05/04 04:21:26;;;;;;;2.85;2.65;;;8.40;99.90;;;;;;4956245;29;20172;-73
2023/05/04 04:23:52;;;;;;;2.45;2.25;;;8.40;99.90;;;;;;4937052;28;20184;-74
2023/05/04 04:26:19;;;;;;;2.78;2.58;;;8.40;99.90;;;;;;4956112;29;20180;-74
2023/05/04 04:28:49;;;;;;;2.97;2.78;;;8.40;99.90;;;;;;4956386;29;20169;-73
2023/05/04 04:31:16;;;;;;;3.55;3.25;;;8.50;99.90;;;;;;4956065;29;20594;-74
2023/05/04 04:33:41;;;;;;;5.13;3.38;;;8.60;99.90;;;;;;4955435;28;20169;-73
2023/05/04 04:36:08;;;;;;;3.50;3.20;;;8.60;99.90;;;;;;4955698;29;20179;-73
2023/05/04 04:38:33;;;;;;;3.80;3.30;;;8.80;99.90;;;;;;4956094;29;20173;-73
2023/05/04 04:40:59;;;;;;;2.43;2.27;;;8.90;99.90;;;;;;4956018;29;20268;-73
2023/05/04 04:43:24;;;;;;;2.50;2.40;;;9.00;99.90;;;;;;4955677;29;20173;-72
2023/05/04 04:45:50;;;;;;;4.30;3.90;;;9.20;99.90;;;;;;4955908;28;20223;-73
2023/05/04 04:48:15;;;;;;;3.03;2.83;;;9.40;99.90;;;;;;4955700;29;20202;-73
2023/05/04 04:50:41;;;;;;;2.93;2.63;;;9.60;99.90;;;;;;4955829;29;20165;-73
2023/05/04 04:53:07;;;;;;;3.92;2.95;;;9.90;99.90;;;;;;4955447;29;20211;-73
2023/05/04 04:55:33;;;;;;;6.57;3.40;;;10.20;99.90;;;;;;4955754;28;20189;-73
2023/05/04 04:57:59;;;;;;;3.00;2.80;;;10.40;99.90;;;;;;4955850;29;20667;-73
2023/05/04 05:00:25;;;;;;;2.93;2.70;;;10.60;99.90;;;;;;4938432;29;20185;-74
2023/05/04 05:02:50;;;;;;;4.40;2.87;;;10.70;99.90;;;;;;4955624;29;20185;-73
2023/05/04 05:05:16;;;;;;;5.80;3.30;;;10.80;99.90;;;;;;4953654;29;20490;-74
2023/05/04 05:07:42;;;;;;;2.22;2.13;;;10.70;99.90;;;;;;4954875;28;20205;-75
2023/05/04 05:10:08;;;;;;;2.80;2.60;;;10.70;99.90;;;;;;4934345;29;20204;-73
2023/05/04 05:12:34;;;;;;;2.63;2.53;;;10.60;99.90;;;;;;4923321;29;20177;-73
2023/05/04 05:14:59;;;;;;;3.40;3.10;;;10.60;99.90;;;;;;4934619;29;20201;-74
2023/05/04 05:17:25;;;;;;;2.80;2.60;;;10.60;99.90;;;;;;4951815;29;20183;-73
2023/05/04 05:19:51;;;;;;;2.27;2.07;;;10.70;99.90;;;;;;4955249;29;20720;-73
2023/05/04 05:22:17;;;;;;;2.73;2.53;;;10.70;99.90;;;;;;4955148;29;20840;-73
2023/05/04 05:24:42;;;;;;;3.60;3.30;;;10.80;99.90;;;;;;4954671;28;20511;-71
2023/05/04 05:27:08;;;;;;;2.50;2.30;;;10.90;99.90;;;;;;4954922;29;20200;-73
2023/05/04 05:29:34;;;;;;;3.23;2.87;;;11.10;99.90;;;;;;4954810;29;20248;-71
2023/05/04 05:31:59;;;;;;;2.63;2.40;;;11.20;99.90;;;;;;4955220;29;20169;-71
2023/05/04 05:34:26;;;;;;;3.67;3.30;;;11.40;99.90;;;;;;4954283;29;20197;-72
2023/05/04 05:36:52;;;;;;;2.57;2.47;;;11.50;99.90;;;;;;4954691;29;20176;-73
2023/05/04 05:39:17;;;;;;;4.10;3.70;;;11.80;99.90;;;;;;4954989;29;20769;-73
2023/05/04 05:41:43;;;;;;;3.67;2.83;;;11.90;99.90;;;;;;4937367;29;20472;-72
2023/05/04 05:44:09;;;;;;;3.27;2.97;;;12.00;99.90;;;;;;4953997;29;20194;-72
2023/05/04 05:46:34;;;;;;;3.13;2.90;;;12.20;99.90;;;;;;4954957;29;20249;-71
2023/05/04 05:49:00;;;;;;;3.63;3.33;;;12.30;99.90;;;;;;4950377;29;20182;-73
2023/05/04 05:51:26;;;;;;;2.63;2.40;;;12.50;99.90;;;;;;4954375;29;20694;-74
2023/05/04 05:53:51;;;;;;;2.97;2.67;;;12.60;99.90;;;;;;4954577;29;20418;-71
2023/05/04 05:56:17;;;;;;;9.83;3.30;;;12.70;99.90;;;;;;4954794;29;20174;-72
2023/05/04 05:58:42;;;;;;;3.77;3.47;;;12.80;99.90;;;;;;4945406;29;20244;-71
2023/05/04 06:01:08;;;;;;;5.07;4.03;;;12.80;99.90;;;;;;4949405;29;20258;-72
2023/05/04 06:03:34;;;;;;;5.97;3.20;;;12.80;99.90;;;;;;4937383;29;20645;-72
2023/05/04 06:05:59;;;;;;;3.83;3.50;;;12.90;99.90;;;;;;4937172;29;20212;-73
2023/05/04 06:08:25;;;;;;;5.07;3.73;;;13.10;99.90;;;;;;4937259;29;20212;-73
2023/05/04 06:10:51;;;;;;;4.70;3.10;;;13.30;99.90;;;;;;4954880;29;20172;-72
2023/05/04 06:13:16;;;;;;;3.80;3.43;;;13.50;99.90;;;;;;4936969;29;20180;-70
2023/05/04 06:15:50;;;;;;;5.80;3.87;;;13.40;99.90;;;;;;4954459;29;20756;-71
2023/05/04 06:18:16;;;;;;;3.57;3.37;;;13.40;99.90;;;;;;4948446;29;20176;-73
2023/05/04 06:20:41;;;;;;;4.47;3.90;;;13.40;99.90;;;;;;4947515;29;20793;-74
2023/05/04 06:23:07;;;;;;;5.17;4.30;;;13.40;99.90;;;;;;4954113;29;20178;-73
2023/05/04 06:25:32;;;;;;;3.97;3.53;;;13.50;99.90;;;;;;4937293;28;20672;-73
2023/05/04 06:27:58;;;;;;;4.10;3.70;;;13.60;99.90;;;;;;4956232;29;20621;-72
2023/05/04 06:30:24;;;;;;;5.00;4.17;;;13.80;99.90;;;;;;4953041;28;20269;-72
2023/05/04 06:32:50;;;;;;;3.50;3.20;;;13.90;99.90;;;;;;4953767;29;20235;-73
2023/05/04 06:35:15;;;;;;;4.00;3.00;;;14.10;99.90;;;;;;4943158;29;20693;-73
2023/05/04 06:37:41;;;;;;;4.40;4.00;;;14.30;99.90;;;;;;4938710;29;20499;-74
2023/05/04 06:40:07;;;;;;;5.37;3.80;;;14.40;99.90;;;;;;4957381;29;20275;-74
2023/05/04 06:42:33;;;;;;;5.73;3.43;;;14.50;99.90;;;;;;4931580;29;20275;-74
2023/05/04 06:44:58;;;;;;;5.37;3.73;;;14.50;99.90;;;;;;4938236;29;20974;-74
2023/05/04 06:47:24;;;;;;;6.03;3.80;;;14.50;99.90;;;;;;4938633;29;20205;-73
2023/05/04 06:49:50;;;;;;;4.90;4.50;;;14.50;99.90;;;;;;4938539;29;20184;-75
2023/05/04 06:52:15;;;;;;;5.73;3.47;;;14.70;99.90;;;;;;4942816;29;20169;-74
2023/05/04 06:54:41;;;;;;;4.80;3.47;;;14.80;99.90;;;;;;4932689;29;20205;-74
2023/05/04 06:57:06;;;;;;;4.63;3.80;;;14.90;99.90;;;;;;4957405;29;20224;-74
2023/05/04 06:59:32;;;;;;;4.10;3.57;;;15.00;99.90;;;;;;4957711;29;20231;-74
2023/05/04 07:01:58;;;;;;;3.50;3.20;;;15.00;99.90;;;;;;4957075;29;20196;-74
2023/05/04 07:04:23;;;;;;;4.20;3.80;;;15.10;99.90;;;;;;4956361;29;20700;-74
2023/05/04 07:06:50;;;;;;;4.00;3.60;;;15.30;99.90;;;;;;4956604;29;20577;-76
2023/05/04 07:09:19;;;;;;;6.80;3.40;;;15.40;99.90;;;;;;4957559;29;20212;-74
2023/05/04 07:11:47;;;;;;;4.07;3.47;;;15.50;99.90;;;;;;4957353;29;20420;-73
2023/05/04 07:14:13;;;;;;;4.07;3.37;;;15.70;99.90;;;;;;4955766;29;20538;-74
2023/05/04 07:16:39;;;;;;;4.47;4.07;;;15.80;99.90;;;;;;4956527;29;20435;-73
2023/05/04 07:19:04;;;;;;;4.50;4.10;;;15.90;99.90;;;;;;4957073;29;20838;-73
2023/05/04 07:21:30;;;;;;;3.90;3.60;;;16.10;99.90;;;;;;4957575;29;20508;-74
2023/05/04 07:23:56;;;;;;;4.10;3.70;;;16.30;99.90;;;;;;4938996;28;20181;-73
2023/05/04 07:26:22;;;;;;;3.90;3.53;;;16.60;99.90;;;;;;4939949;29;20177;-73
2023/05/04 07:28:47;;;;;;;4.23;3.23;;;17.10;99.80;;;;;;4956893;29;20563;-73
2023/05/04 07:31:13;;;;;;;4.33;3.93;;;17.70;98.50;;;;;;4939424;29;20428;-74
2023/05/04 07:33:39;;;;;;;3.40;3.10;;;18.20;98.20;;;;;;4956892;29;20177;-74
2023/05/04 07:36:05;;;;;;;3.23;2.73;;;18.90;97.10;;;;;;4957113;28;20204;-74
2023/05/04 07:38:31;;;;;;;3.40;3.10;;;19.60;95.50;;;;;;4956374;28;20422;-73
2023/05/04 07:40:57;;;;;;;3.30;3.03;;;20.30;94.30;;;;;;4957363;29;20413;-74
2023/05/04 07:43:23;;;;;;;3.73;3.33;;;21.10;93.10;;;;;;4956811;29;20445;-74
2023/05/04 07:45:49;;;;;;;3.97;3.50;;;22.00;92.20;;;;;;4939670;29;20284;-74
2023/05/04 07:48:16;;;;;;;3.93;3.53;;;22.60;90.30;;;;;;4939599;29;20214;-74
2023/05/04 07:50:42;;;;;;;3.87;3.50;;;23.30;88.80;;;;;;4956898;29;20432;-73
2023/05/04 07:53:08;;;;;;;4.37;4.00;;;23.90;86.20;;;;;;4956746;29;20413;-75
2023/05/04 07:55:33;;;;;;;3.10;2.80;;;24.50;84.00;;;;;;4956779;28;20551;-74
2023/05/04 07:57:59;;;;;;;4.20;3.90;;;25.00;82.80;;;;;;4956841;29;20255;-75
2023/05/04 08:00:26;;;;;;;4.33;3.93;;;25.70;79.40;;;;;;4956711;29;20164;-74
2023/05/04 08:02:51;;;;;;;4.07;3.70;;;26.00;77.70;;;;;;4956519;29;20177;-74
2023/05/04 08:05:17;;;;;;;4.03;3.73;;;26.10;75.60;;;;;;4938911;29;20439;-74
2023/05/04 08:07:43;;;;;;;3.93;3.53;;;26.20;75.50;;;;;;4935052;29;20618;-74
2023/05/04 08:10:09;;;;;;;4.10;3.80;;;26.30;73.30;;;;;;4935413;29;20190;-73
2023/05/04 08:12:34;;;;;;;3.80;3.50;;;26.50;73.00;;;;;;4935517;29;20643;-71
2023/05/04 08:15:00;;;;;;;4.27;3.87;;;27.00;73.00;;;;;;4934896;29;20417;-73
2023/05/04 08:17:26;;;;;;;3.40;3.20;;;27.00;72.00;;;;;;4935171;29;20193;-74
2023/05/04 08:19:52;;;;;;;4.97;4.60;;;26.70;71.60;;;;;;4935328;29;20234;-72
2023/05/04 08:22:17;;;;;;;4.30;3.90;;;27.00;72.00;;;;;;4934973;29;20402;-72
2023/05/04 08:24:46;;;;;;;3.77;3.47;;;27.30;69.50;;;;;;4934628;29;20248;-72
2023/05/04 08:27:13;;;;;;;3.70;3.40;;;27.50;69.60;;;;;;4935217;29;20651;-72
2023/05/04 08:29:38;;;;;;;3.40;3.10;;;27.60;68.70;;;;;;4934994;29;20403;-73
2023/05/04 08:32:04;;;;;;;3.60;3.30;;;27.70;67.70;;;;;;4935130;29;20447;-73
2023/05/04 08:34:30;;;;;;;3.20;2.93;;;27.70;67.50;;;;;;4934512;29;20218;-72
2023/05/04 08:36:56;;;;;;;4.40;3.47;;;28.00;67.60;;;;;;4934742;29;20470;-72
2023/05/04 08:39:22;;;;;;;3.13;2.93;;;28.40;66.20;;;;;;4951478;29;20239;-73
2023/05/04 08:41:47;;;;;;;3.63;3.33;;;28.70;64.20;;;;;;4955802;29;20477;-73
2023/05/04 08:44:14;;;;;;;3.20;3.00;;;29.00;63.80;;;;;;4938778;29;20205;-72
2023/05/04 08:46:40;;;;;;;3.13;2.83;;;28.90;61.40;;;;;;4955936;29;20689;-73
2023/05/04 08:49:06;;;;;;;3.27;2.90;;;28.30;63.10;;;;;;4955509;28;20380;-72
2023/05/04 08:51:35;;;;;;;2.90;2.60;;;28.40;63.90;;;;;;4955205;29;20181;-72
2023/05/04 08:54:05;;;;;;;3.10;2.90;;;28.60;61.50;;;;;;4955285;28;20391;-71
2023/05/04 08:56:31;;;;;;;2.93;2.73;;;28.50;60.40;;;;;;4955854;29;20500;-72
2023/05/04 08:59:00;;;;;;;2.40;2.30;;;28.30;59.30;;;;;;4955954;29;20501;-73
2023/05/04 09:01:27;;;;;;;2.90;2.60;;;28.30;59.90;;;;;;4955652;29;20176;-72
2023/05/04 09:03:52;;;;;;;2.63;2.43;;;28.40;59.10;;;;;;4955163;28;20393;-71
2023/05/04 09:06:18;;;;;;;2.13;2.03;;;28.40;58.60;;;;;;4937990;29;20426;-72
2023/05/04 09:08:45;;;;;;;2.50;2.30;;;28.20;58.50;;;;;;4955482;29;20255;-72
2023/05/04 09:11:10;;;;;;;2.93;2.73;;;28.10;58.50;;;;;;4955386;29;20173;-72
2023/05/04 09:13:36;;;;;;;2.83;2.63;;;28.30;58.70;;;;;;4955160;29;20478;-72
2023/05/04 09:16:02;;;;;;;2.43;2.33;;;28.80;57.70;;;;;;4955370;28;20225;-72
2023/05/04 09:18:43;;;;;;;3.63;3.37;;;29.20;57.70;;;;;;4955463;29;20416;-74
2023/05/04 09:21:11;;;;;;;2.60;2.40;;;29.50;56.80;;;;;;4938459;29;20394;-73
2023/05/04 09:23:47;;;;;;;2.50;2.30;;;29.60;56.80;;;;;;4937896;29;20421;-72
2023/05/04 09:26:13;;;;;;;2.97;2.77;;;29.80;55.90;;;;;;4938222;29;20395;-72
2023/05/04 09:28:39;;;;;;;3.10;2.90;;;29.90;55.50;;;;;;4955372;29;20886;-73
2023/05/04 09:31:06;;;;;;;3.20;2.60;;;30.10;55.40;;;;;;4955189;29;20694;-73
2023/05/04 09:33:32;;;;;;;3.20;3.00;;;30.40;54.10;;;;;;4955117;29;20176;-73
2023/05/04 09:35:59;;;;;;;2.80;2.60;;;30.70;54.00;;;;;;4955115;28;20487;-74
2023/05/04 09:38:26;;;;;;;2.83;2.63;;;30.60;53.00;;;;;;4955198;29;20223;-73
2023/05/04 09:40:51;;;;;;;3.07;2.87;;;30.70;53.50;;;;;;4955360;29;20831;-74
2023/05/04 09:43:17;;;;;;;2.37;2.00;;;30.80;53.20;;;;;;4955071;29;20417;-73
2023/05/04 09:45:47;;;;;;;2.80;2.60;;;30.80;54.00;;;;;;4955120;28;20205;-71
2023/05/04 09:48:17;;;;;;;2.57;2.37;;;30.70;53.00;;;;;;4955002;29;20204;-72
2023/05/04 09:50:50;;;;;;;2.70;2.50;;;30.70;52.80;;;;;;4955063;29;20932;-73
2023/05/04 09:53:18;;;;;;;2.80;2.47;;;30.70;51.90;;;;;;4955082;29;20450;-74
2023/05/04 09:55:46;;;;;;;2.70;2.50;;;30.80;52.00;;;;;;4955090;28;20399;-73
2023/05/04 09:58:17;;;;;;;2.63;2.43;;;30.60;51.50;;;;;;4955215;29;20418;-73
2023/05/04 10:00:44;;;;;;;3.20;3.00;;;30.30;51.80;;;;;;4955138;28;20375;-74
2023/05/04 10:03:10;;;;;;;2.83;2.63;;;30.20;53.00;;;;;;4958452;29;20732;-73
2023/05/04 10:05:37;;;;;;;3.10;2.90;;;30.50;51.60;;;;;;4941503;29;20459;-73
2023/05/04 10:08:04;;;;;;;2.17;2.07;;;30.00;51.80;;;;;;4958682;29;20517;-73
2023/05/04 10:10:30;;;;;;;2.57;2.47;;;30.10;53.20;;;;;;4958789;29;20404;-73
2023/05/04 10:12:56;;;;;;;2.60;2.40;;;30.30;51.70;;;;;;4958751;29;20785;-73
2023/05/04 10:15:23;;;;;;;2.43;2.33;;;30.60;51.00;;;;;;4958332;28;20399;-73
2023/05/04 10:18:10;;;;;;;2.70;2.50;;;30.40;50.70;;;;;;4941049;29;20201;-70
2023/05/04 10:20:50;;;;;;;2.53;2.33;;;29.60;51.90;;;;;;4958161;29;20754;-72
2023/05/04 10:23:57;;;;;;;2.30;2.20;;;29.50;52.00;;;;;;4958009;29;20879;-74
2023/05/04 10:26:29;;;;;;;2.50;2.30;;;29.20;51.60;;;;;;4880693;29;20383;-73
2023/05/04 10:29:11;;;;;;;2.20;2.10;;;29.30;51.90;;;;;;4865113;29;20804;-74
2023/05/04 10:31:40;;;;;;;2.13;1.93;;;29.50;51.80;;;;;;4865030;29;20496;-74
2023/05/04 10:34:07;;;;;;;3.20;2.90;;;29.40;51.90;;;;;;4880299;29;21000;-73
2023/05/04 10:36:36;;;;;;;2.40;2.20;;;28.90;51.50;;;;;;4880659;29;20421;-73
2023/05/04 10:39:03;;;;;;;2.93;2.73;;;28.50;52.10;;;;;;4880416;29;20757;-74
2023/05/04 10:41:29;;;;;;;2.60;2.40;;;28.40;52.90;;;;;;4880482;29;20398;-74
2023/05/04 10:44:04;;;;;;;2.10;2.00;;;28.50;51.50;;;;;;4879949;29;20946;-73
2023/05/04 10:46:30;;;;;;;2.00;1.83;;;28.40;51.00;;;;;;4880331;29;20182;-72
2023/05/04 10:48:56;;;;;;;2.10;2.00;;;27.80;51.60;;;;;;4880191;29;20411;-71
2023/05/04 10:51:23;;;;;;;2.23;2.13;;;27.50;51.80;;;;;;4880136;29;20526;-73
2023/05/04 10:53:49;;;;;;;2.40;2.20;;;27.40;52.30;;;;;;4864206;29;20215;-74
2023/05/04 10:56:27;;;;;;;1.93;1.80;;;27.30;52.50;;;;;;4880096;29;20462;-73
2023/05/04 10:58:53;;;;;;;2.63;2.43;;;27.20;52.80;;;;;;4880206;29;20205;-72
2023/05/04 11:01:20;;;;;;;2.30;2.20;;;26.90;52.30;;;;;;4879921;29;20393;-73
2023/05/04 11:03:47;;;;;;;3.67;2.33;;;26.60;53.30;;;;;;4951044;28;20413;-73
2023/05/04 11:06:22;;;;;;;3.47;2.20;;;26.50;54.00;;;;;;4940346;29;20945;-73
2023/05/04 11:08:58;;;;;;;2.37;2.17;;;26.20;54.10;;;;;;4957822;29;20405;-74
2023/05/04 11:11:24;;;;;;;1.80;1.63;;;25.80;55.00;;;;;;4940376;29;20382;-73
2023/05/04 11:13:50;;;;;;;1.80;1.70;;;25.40;55.10;;;;;;4956465;28;20468;-73
2023/05/04 11:16:23;;;;;;;1.70;1.60;;;25.10;54.40;;;;;;4957903;29;20184;-73
2023/05/04 11:18:49;;;;;;;2.50;2.30;;;24.80;55.70;;;;;;4957610;29;20393;-73
2023/05/04 11:21:24;;;;;;;2.20;2.00;;;24.50;55.40;;;;;;4957769;29;20376;-73
2023/05/04 11:23:54;;;;;;;1.87;1.77;;;24.30;54.40;;;;;;4956905;28;20272;-72
2023/05/04 11:26:20;;;;;;;2.60;2.40;;;24.10;54.50;;;;;;4957389;29;20397;-72
2023/05/04 11:28:46;;;;;;;2.93;1.83;;;24.00;54.70;;;;;;4940541;29;20435;-71
2023/05/04 11:31:18;;;;;;;2.13;2.03;;;24.00;54.30;;;;;;4960579;29;20176;-72
2023/05/04 11:33:53;;;;;;;2.27;1.90;;;23.80;54.70;;;;;;4943230;28;20216;-73
2023/05/04 11:36:20;;;;;;;2.30;2.10;;;23.70;56.10;;;;;;4945354;29;20424;-72
2023/05/04 11:38:47;;;;;;;2.10;1.90;;;23.70;56.00;;;;;;4959760;29;20413;-73
2023/05/04 11:41:12;;;;;;;1.87;1.77;;;23.80;56.60;;;;;;4941544;29;20421;-73
2023/05/04 11:43:39;;;;;;;2.57;2.10;;;23.80;55.50;;;;;;4957612;29;20405;-73
2023/05/04 11:46:06;;;;;;;2.20;1.83;;;23.60;56.20;;;;;;4957484;28;20188;-71
2023/05/04 11:48:34;;;;;;;1.40;1.40;;;23.50;56.20;;;;;;4957197;29;20456;-71
2023/05/04 11:51:01;;;;;;;1.50;1.50;;;23.40;56.50;;;;;;4957523;29;20408;-72
2023/05/04 11:53:35;;;;;;;2.80;2.60;;;23.30;56.00;;;;;;4956727;29;20466;-72
2023/05/04 11:56:01;;;;;;;2.00;1.90;;;23.20;56.90;;;;;;4959332;28;20499;-72
2023/05/04 11:58:27;;;;;;;2.50;2.30;;;23.20;58.10;;;;;;4940599;29;20399;-72
2023/05/04 12:00:56;;;;;;;2.30;2.10;;;23.10;57.80;;;;;;4959447;29;20418;-73
2023/05/04 12:03:53;;;;;;;1.60;1.50;;;23.20;57.90;;;;;;4958550;29;20211;-73
2023/05/04 12:06:31;;;;;;;1.90;1.80;;;23.10;56.10;;;;;;4956412;29;20824;-71
2023/05/04 12:09:05;;;;;;;2.33;2.13;;;23.00;57.60;;;;;;4956772;29;20439;-71
2023/05/04 12:11:31;;;;;;;2.50;2.40;;;23.00;58.00;;;;;;4956639;29;20488;-73
2023/05/04 12:14:12;;;;;;;5.23;2.53;;;22.90;58.10;;;;;;4956601;28;20401;-74
2023/05/04 12:16:38;;;;;;;2.70;2.50;;;22.80;57.30;;;;;;4956425;29;20168;-73
2023/05/04 12:19:11;;;;;;;1.50;1.40;;;22.80;58.50;;;;;;4939390;29;20981;-73
2023/05/04 12:21:50;;;;;;;2.77;2.57;;;22.80;58.70;;;;;;4956473;29;20375;-72
2023/05/04 12:24:16;;;;;;;2.60;2.40;;;22.80;59.60;;;;;;4955859;28;20407;-72
2023/05/04 12:26:41;;;;;;;2.67;2.30;;;22.80;59.20;;;;;;4956310;29;20367;-73
2023/05/04 12:29:07;;;;;;;2.27;2.13;;;22.80;61.90;;;;;;4956313;29;20179;-72
2023/05/04 12:31:32;;;;;;;3.87;3.10;;;22.90;59.90;;;;;;4956239;29;20177;-73
2023/05/04 12:33:58;;;;;;;2.63;2.43;;;23.00;60.60;;;;;;4955752;28;20183;-72
2023/05/04 12:36:24;;;;;;;2.63;2.43;;;23.00;60.60;;;;;;4956243;29;20213;-72
2023/05/04 12:38:49;;;;;;;2.90;1.97;;;23.00;62.00;;;;;;4956022;29;20272;-73
2023/05/04 12:41:15;;;;;;;2.00;1.90;;;23.00;61.50;;;;;;4955750;29;20177;-72
2023/05/04 12:43:41;;;;;;;2.10;1.90;;;23.10;59.90;;;;;;4938426;29;20571;-72
2023/05/04 12:46:07;;;;;;;2.47;2.37;;;23.20;59.80;;;;;;4938694;29;20176;-73
2023/05/04 12:48:33;;;;;;;2.70;2.50;;;23.20;60.20;;;;;;4955935;29;20564;-75
2023/05/04 12:50:59;;;;;;;2.33;2.13;;;23.30;61.60;;;;;;4938492;29;20179;-72
2023/05/04 12:53:30;;;;;;;2.87;2.63;;;23.30;60.40;;;;;;4955369;29;20176;-74
2023/05/04 12:56:00;;;;;;;2.10;2.00;;;23.40;59.50;;;;;;4938447;29;20956;-71
2023/05/04 12:58:26;;;;;;;2.40;2.20;;;23.30;61.50;;;;;;4937645;29;20426;-71
2023/05/04 13:00:52;;;;;;;2.47;2.27;;;23.30;60.60;;;;;;4955057;29;20476;-71
2023/05/04 13:03:18;;;;;;;2.80;2.60;;;23.30;61.70;;;;;;4938050;29;20186;-73
2023/05/04 13:05:45;;;;;;;3.03;2.83;;;23.20;61.60;;;;;;4953562;29;20212;-72
2023/05/04 13:08:10;;;;;;;3.50;3.20;;;23.30;61.60;;;;;;4944268;29;20458;-75
2023/05/04 13:10:36;;;;;;;2.70;2.13;;;23.20;61.60;;;;;;4938273;29;20423;-73
2023/05/04 13:13:03;;;;;;;3.40;3.07;;;23.10;62.10;;;;;;4955392;29;20179;-73
2023/05/04 13:15:30;;;;;;;2.33;2.13;;;23.00;62.50;;;;;;4938146;29;20190;-71
2023/05/04 13:17:56;;;;;;;2.50;2.30;;;23.10;63.80;;;;;;4938396;29;20714;-74
2023/05/04 13:20:21;;;;;;;2.23;2.03;;;23.10;64.20;;;;;;4955413;29;20419;-75
2023/05/04 13:22:47;;;;;;;3.30;3.03;;;23.20;64.50;;;;;;4955480;29;20187;-70
2023/05/04 13:25:13;;;;;;;3.83;3.47;;;23.30;62.80;;;;;;4954586;29;20201;-70
2023/05/04 13:27:39;;;;;;;3.00;2.80;;;23.30;61.80;;;;;;4955149;29;20204;-71
2023/05/04 13:30:06;;;;;;;2.77;2.50;;;23.30;62.60;;;;;;4955195;29;20261;-73
2023/05/04 13:32:31;;;;;;;2.70;2.50;;;23.20;64.90;;;;;;4938226;29;20223;-71
2023/05/04 13:34:57;;;;;;;3.87;2.60;;;23.30;63.80;;;;;;4954530;29;20418;-72
2023/05/04 13:37:23;;;;;;;3.03;2.83;;;23.30;63.50;;;;;;4959963;28;20184;-71
2023/05/04 13:39:48;;;;;;;2.30;2.03;;;23.30;62.80;;;;;;4961109;28;20587;-73
2023/05/04 13:42:14;;;;;;;3.23;2.93;;;23.30;64.10;;;;;;4961637;29;20580;-73
2023/05/04 13:44:49;;;;;;;4.10;3.73;;;23.30;63.40;;;;;;4961154;28;20193;-73
2023/05/04 13:47:16;;;;;;;3.40;2.60;;;23.20;65.00;;;;;;4925082;29;20239;-70
2023/05/04 13:49:42;;;;;;;3.07;2.80;;;23.30;64.80;;;;;;4954540;29;20415;-74
2023/05/04 13:52:07;;;;;;;2.03;1.83;;;23.20;65.50;;;;;;4944210;29;20487;-74
2023/05/04 13:54:36;;;;;;;2.80;2.60;;;23.30;65.40;;;;;;4960916;29;20188;-72
2023/05/04 13:57:01;;;;;;;2.73;2.53;;;23.40;64.80;;;;;;4961246;28;20687;-76
2023/05/04 13:59:27;;;;;;;3.07;2.80;;;23.40;65.00;;;;;;4960943;28;20444;-73
2023/05/04 14:01:53;;;;;;;2.80;2.60;;;23.40;66.30;;;;;;4943855;29;20219;-73
2023/05/04 14:04:19;;;;;;;3.90;2.03;;;23.40;65.10;;;;;;4961087;29;20452;-74
2023/05/04 14:06:49;;;;;;;2.67;2.43;;;23.40;65.70;;;;;;4961199;28;20274;-74
2023/05/04 14:09:18;;;;;;;2.40;2.30;;;23.40;65.50;;;;;;4960917;29;20465;-74
2023/05/04 14:11:45;;;;;;;2.27;2.17;;;23.40;65.60;;;;;;4961159;29;20412;-74
2023/05/04 14:14:12;;;;;;;3.50;2.90;;;23.40;65.50;;;;;;4960934;28;20459;-73
2023/05/04 14:16:37;;;;;;;2.40;2.30;;;23.40;65.00;;;;;;4961167;28;20406;-73
2023/05/04 14:19:04;;;;;;;3.27;3.03;;;23.30;66.00;;;;;;4961299;29;20386;-73
2023/05/04 14:21:30;;;;;;;4.23;3.17;;;23.30;65.30;;;;;;4961172;29;20755;-74
2023/05/04 14:23:55;;;;;;;2.60;2.40;;;23.30;66.70;;;;;;4960836;29;20411;-73
2023/05/04 14:26:21;;;;;;;2.03;1.93;;;23.40;66.60;;;;;;4961130;29;20179;-73
2023/05/04 14:28:47;;;;;;;3.03;2.80;;;23.40;65.30;;;;;;4943932;29;20214;-74
2023/05/04 14:31:13;;;;;;;2.53;2.30;;;23.40;65.70;;;;;;4961101;29;20188;-74
2023/05/04 14:33:41;;;;;;;2.57;2.37;;;23.50;65.80;;;;;;4943570;29;20427;-73
2023/05/04 14:36:09;;;;;;;2.57;2.33;;;23.50;64.90;;;;;;4961199;28;20182;-72
2023/05/04 14:38:35;;;;;;;2.00;1.90;;;23.50;64.80;;;;;;4961142;28;20807;-73
2023/05/04 14:41:04;;;;;;;2.80;2.60;;;23.50;65.40;;;;;;4961216;29;20475;-73
2023/05/04 14:43:30;;;;;;;2.30;2.10;;;23.60;65.00;;;;;;4960890;28;20176;-72
2023/05/04 14:45:58;;;;;;;3.20;3.00;;;23.60;64.80;;;;;;4961291;29;20787;-73
2023/05/04 14:48:25;;;;;;;2.43;2.20;;;23.70;64.50;;;;;;4958641;28;20200;-74
2023/05/04 14:50:54;;;;;;;2.90;2.70;;;23.70;64.00;;;;;;4958016;29;20405;-73
2023/05/04 14:53:23;;;;;;;2.10;2.00;;;23.70;64.50;;;;;;4957715;29;20750;-73
2023/05/04 14:55:49;;;;;;;2.20;2.07;;;23.70;63.50;;;;;;4957898;29;20784;-75
2023/05/04 14:58:16;;;;;;;1.67;1.57;;;23.70;63.60;;;;;;4957956;29;20407;-75
2023/05/04 15:00:42;;;;;;;2.73;2.37;;;23.70;64.50;;;;;;4957968;29;20506;-74
2023/05/04 15:03:08;;;;;;;1.83;1.73;;;23.80;63.10;;;;;;4957453;29;20457;-74
2023/05/04 15:05:34;;;;;;;2.77;2.60;;;23.80;63.20;;;;;;4957445;29;20983;-74
2023/05/04 15:08:01;;;;;;;3.20;2.90;;;23.70;62.50;;;;;;4957646;29;20454;-74
2023/05/04 15:10:35;;;;;;;4.03;2.70;;;23.70;62.60;;;;;;4957699;29;20180;-74
2023/05/04 15:13:02;;;;;;;2.70;2.50;;;23.70;62.60;;;;;;4957246;29;20414;-72
2023/05/04 15:15:27;;;;;;;2.27;2.17;;;23.50;62.80;;;;;;4957496;29;20188;-74
2023/05/04 15:17:53;;;;;;;2.17;2.03;;;23.40;62.50;;;;;;4958311;29;20423;-74
2023/05/04 15:20:19;;;;;;;1.83;1.73;;;23.50;63.60;;;;;;4957799;29;20706;-74
2023/05/04 15:22:49;;;;;;;2.33;2.20;;;23.50;64.40;;;;;;4940402;29;20229;-72
2023/05/04 15:25:15;;;;;;;2.63;2.17;;;23.50;61.80;;;;;;4957191;29;20690;-73
2023/05/04 15:27:42;;;;;;;1.80;1.70;;;23.50;61.30;;;;;;4957371;29;20457;-73
2023/05/04 15:30:08;;;;;;;2.27;2.07;;;23.40;60.80;;;;;;4957306;29;20166;-74
2023/05/04 15:32:34;;;;;;;1.97;1.87;;;23.40;60.80;;;;;;4956690;29;20408;-74
2023/05/04 15:34:59;;;;;;;2.80;2.30;;;23.50;61.10;;;;;;4939141;29;20426;-66
2023/05/04 15:37:26;;;;;;;1.80;1.70;;;23.40;61.20;;;;;;4957234;29;20174;-66
2023/05/04 15:39:52;;;;;;;2.10;1.90;;;23.40;61.40;;;;;;4957200;29;20181;-65
2023/05/04 15:42:18;;;;;;;2.07;1.97;;;23.40;61.90;;;;;;4939986;29;20483;-70
2023/05/04 15:44:43;;;;;;;2.03;1.93;;;23.40;61.50;;;;;;4939359;29;20198;-65
2023/05/04 15:47:11;;;;;;;2.27;2.17;;;23.40;61.80;;;;;;4957106;29;20546;-64
2023/05/04 15:49:37;;;;;;;2.40;2.20;;;23.30;62.30;;;;;;4957313;29;20594;-64
2023/05/04 15:52:03;;;;;;;2.50;2.20;;;23.30;62.80;;;;;;4956675;29;20478;-64
2023/05/04 15:54:28;;;;;;;2.57;2.37;;;23.20;63.00;;;;;;4956265;28;20460;-64
2023/05/04 15:56:54;;;;;;;2.27;2.07;;;23.20;63.50;;;;;;4956754;29;20635;-65
2023/05/04 15:59:19;;;;;;;2.60;2.40;;;23.20;62.30;;;;;;4956148;28;20181;-66
2023/05/04 16:01:45;;;;;;;2.20;1.90;;;23.10;62.50;;;;;;4956640;29;20595;-67
2023/05/04 16:04:10;;;;;;;2.10;1.90;;;23.10;63.10;;;;;;4938900;29;20219;-64
2023/05/04 16:06:37;;;;;;;2.17;1.80;;;23.20;62.60;;;;;;4956621;29;20595;-64
2023/05/04 16:09:03;;;;;;;1.70;1.60;;;23.20;63.10;;;;;;4956465;29;20217;-64
2023/05/04 16:11:29;;;;;;;2.33;2.13;;;23.20;63.30;;;;;;4956438;29;20442;-65
2023/05/04 16:13:55;;;;;;;2.63;2.43;;;23.20;63.00;;;;;;4955743;28;20632;-65
2023/05/04 16:16:20;;;;;;;2.90;2.43;;;23.30;63.10;;;;;;4956371;29;20414;-64
2023/05/04 16:18:46;;;;;;;2.13;1.93;;;23.30;62.60;;;;;;4956159;29;20210;-65
2023/05/04 16:21:13;;;;;;;3.00;2.10;;;23.30;62.50;;;;;;4955185;29;20183;-64
2023/05/04 16:23:39;;;;;;;3.13;2.53;;;23.30;62.00;;;;;;4955546;29;20193;-65
2023/05/04 16:26:05;;;;;;;2.00;1.90;;;23.30;60.90;;;;;;4955970;29;20494;-65
2023/05/04 16:28:33;;;;;;;2.00;1.90;;;23.30;61.00;;;;;;4938829;29;20434;-69
2023/05/04 16:30:58;;;;;;;1.73;1.63;;;23.30;62.00;;;;;;4934325;29;20190;-70
2023/05/04 16:33:25;;;;;;;2.53;2.33;;;23.20;61.60;;;;;;4955591;29;20412;-71
2023/05/04 16:35:51;;;;;;;1.67;1.57;;;23.20;61.60;;;;;;4955904;29;20649;-70
2023/05/04 16:38:18;;;;;;;2.00;1.70;;;23.20;61.70;;;;;;4955826;29;20422;-68
2023/05/04 16:40:44;;;;;;;2.00;1.90;;;23.10;62.10;;;;;;4955424;29;20176;-71
2023/05/04 16:43:10;;;;;;;2.00;1.90;;;23.10;62.00;;;;;;4937985;29;20932;-69
2023/05/04 16:45:36;;;;;;;1.93;1.83;;;23.00;62.30;;;;;;4955287;29;20429;-68
2023/05/04 16:48:01;;;;;;;2.90;2.70;;;23.10;63.10;;;;;;4955539;29;20200;-68
2023/05/04 16:50:27;;;;;;;2.63;2.43;;;23.00;63.00;;;;;;4938020;29;20169;-68